Terminal Aerodrome Forecast
Issued by NWS Grand Forks, ND

Home | Current Version | Previous Version | Graphics & Text | Print | Product List | Glossary On
Versions: 1 2 3 4 5 6 7 8 9 10 11 12 13 14 15 16 17 18 19 20 21 22 23
000
FTUS43 KFGF 231100
TAFGFK
TAF
KGFK 231120Z 2312/2412 13018KT P6SM OVC200
      TEMPO 2313/2316 BKN080
     FM231600 13018KT P6SM OVC080
      TEMPO 2316/2319 3SM -RA BR OVC040
     FM231900 13020G30KT 4SM -RA BR OVC040
     FM240000 13018KT P6SM -RA OVC025=

USA.gov is the U.S. government's official web portal to all federal, state and local government web resources and services.